»·PEaware :: WWW33 KBUR-KLAS

WWW33 :: KBUR-KLAS

FLIGHT INFORMATION

Flight Status: Arrived
Operator: Unknown
More flights by this operator :: More flights under this callsign
Pilot: Elijah H. (14779)
Aircraft: BOEING 737-600
(B736)
More flights by this aircraft type
Origin: KBUR Bob Hope-Burbank
United States
Destination: KLAS McCarran Intl
United States
More flights between these airports :: More routes between these airports
Route: SLAPP1 MISEN KEPEC6
File this flight plan on PilotEdge
Remarks:
Altitude:
(Current/Filed)
27,000ft
Speed:
(Current/Filed)
328kts
Departed: 19-May-20 07:21 PM
Arrived: 19-May-20 08:07 PM
Distance/Time
Traveled:
193nm/0:46
Distance/Time
To Go:
Arrived

Flight Plot

Page will automatically refresh every two minutes.


Map Options




Map Legend


Flown Route
Filed Route
Departure Airport
Arrival Airport
Navaid (VOR, NDB)
Fix

Horizontal Profiles

Position Reports

Time Latitude Longitude Heading Altitude Ground
Speed
19-May-20 18:56 34.202557 -118.360643 254 786ft 0kts
19-May-20 18:57 34.202566 -118.360603 254 786ft 0kts
19-May-20 18:58 34.202566 -118.360603 254 786ft 0kts
19-May-20 18:59 34.202566 -118.360603 254 786ft 0kts
19-May-20 19:00 34.202566 -118.360603 254 786ft 0kts
19-May-20 19:01 34.202566 -118.360603 254 786ft 0kts
19-May-20 19:02 34.202566 -118.360603 254 786ft 0kts
19-May-20 19:02 34.202566 -118.360603 254 786ft 0kts
19-May-20 19:04 34.202566 -118.360603 254 786ft 0kts
19-May-20 19:05 34.202566 -118.360603 254 786ft 0kts
19-May-20 19:05 34.202566 -118.360603 254 786ft 0kts
19-May-20 19:06 34.202566 -118.360603 254 786ft 0kts
19-May-20 19:08 34.202566 -118.360603 254 786ft 0kts
19-May-20 19:08 34.202566 -118.360603 254 786ft 0kts
19-May-20 19:09 34.202566 -118.360603 254 786ft 0kts
19-May-20 19:10 34.202566 -118.360603 254 786ft 0kts
19-May-20 19:11 34.202566 -118.360603 254 786ft 0kts
19-May-20 19:12 34.202796 -118.359830 234 786ft 2kts
19-May-20 19:13 34.203129 -118.359708 166 786ft 0kts
19-May-20 19:14 34.203129 -118.359708 166 786ft 0kts
19-May-20 19:15 34.203126 -118.359707 165 786ft 0kts
19-May-20 19:16 34.204636 -118.359315 347 786ft 15kts
19-May-20 19:17 34.208757 -118.360471 347 786ft 13kts
19-May-20 19:18 34.211815 -118.361272 15 786ft 6kts
19-May-20 19:19 34.211625 -118.360233 168 786ft 2kts
19-May-20 19:20 34.186117 -118.353558 180 1851ft 148kts
19-May-20 19:21 34.149203 -118.385430 223 3955ft 213kts
19-May-20 19:22 34.157842 -118.448894 329 6493ft 259kts
19-May-20 19:23 34.228301 -118.467245 19 10705ft 287kts
19-May-20 19:24 34.290914 -118.427268 22 12976ft 334kts
19-May-20 19:25 34.375797 -118.373819 21 16639ft 351kts
19-May-20 19:26 34.467413 -118.325353 23 19156ft 377kts
19-May-20 19:27 34.553592 -118.242477 32 21691ft 412kts
19-May-20 19:28 34.642546 -118.151005 38 24604ft 433kts
19-May-20 19:29 34.684505 -118.009579 78 27007ft 470kts
19-May-20 19:30 34.698962 -117.854892 87 27056ft 453kts
19-May-20 19:31 34.707038 -117.702157 88 27047ft 451kts
19-May-20 19:32 34.712719 -117.549981 88 27057ft 449kts
19-May-20 19:33 34.741039 -117.402737 70 27066ft 448kts
19-May-20 19:34 34.772274 -117.288518 71 27067ft 469kts
19-May-20 19:35 34.814552 -117.128303 72 27055ft 520kts
19-May-20 19:36 34.860051 -116.957887 73 27015ft 528kts
19-May-20 19:37 34.904365 -116.787231 72 26981ft 524kts
19-May-20 19:38 34.953789 -116.664360 54 26976ft 480kts
19-May-20 19:39 35.026889 -116.538255 54 26115ft 444kts
19-May-20 19:40 35.096168 -116.415330 51 24212ft 430kts
19-May-20 19:41 35.173251 -116.314422 42 23983ft 380kts
19-May-20 19:42 35.241507 -116.229041 42 23961ft 326kts
19-May-20 19:43 35.306433 -116.147272 43 21694ft 360kts
19-May-20 19:44 35.364373 -116.074488 43 19630ft 375kts
19-May-20 19:45 35.435754 -115.984656 43 17891ft 363kts
19-May-20 19:46 35.505851 -115.896336 44 16236ft 355kts
19-May-20 19:47 35.573683 -115.809996 45 14994ft 347kts
19-May-20 19:48 35.640800 -115.724343 45 13704ft 350kts
19-May-20 19:49 35.706307 -115.640822 45 13017ft 321kts
19-May-20 19:50 35.779813 -115.575472 9 13034ft 331kts
19-May-20 19:51 35.868982 -115.569133 359 13022ft 315kts
19-May-20 19:52 35.956529 -115.561164 16 13006ft 320kts
19-May-20 19:53 36.001702 -115.473024 82 12050ft 319kts
19-May-20 19:54 36.024798 -115.393281 73 11197ft 303kts
19-May-20 19:55 36.025630 -115.296440 98 10099ft 282kts
19-May-20 19:56 36.018377 -115.200259 96 9043ft 278kts
19-May-20 19:57 36.015554 -115.105476 71 8178ft 269kts
19-May-20 19:58 36.076324 -115.063578 11 8028ft 264kts
19-May-20 19:59 36.147474 -115.041357 11 7991ft 262kts
19-May-20 20:00 36.214547 -115.022075 352 7460ft 218kts
19-May-20 20:01 36.220630 -115.066800 207 6014ft 160kts
19-May-20 20:02 36.182404 -115.099454 223 4173ft 171kts
19-May-20 20:03 36.147769 -115.128555 210 3248ft 127kts
19-May-20 20:04 36.122553 -115.143205 207 2843ft 122kts
19-May-20 20:05 36.091823 -115.160972 207 2191ft 116kts
19-May-20 20:06 36.083663 -115.166880 232 2189ft 0kts
19-May-20 20:07 36.084162 -115.166879 40 2189ft 9kts
19-May-20 20:08 36.087735 -115.164817 24 2189ft 14kts
19-May-20 20:09 36.090915 -115.164257 334 2189ft 11kts
19-May-20 20:10 36.091335 -115.164554 329 2189ft 0kts

Navigation Log

Ident Type
Flight plan parsing failed, navigation log unavailable